Time;durP1;ratioP1;P1;durP2;ratioP2;P2;SDS_P1;SDS_P2;PMS_P1;PMS_P2;Temp;Humidity;BMP_temperature;BMP_pressure;BME280_temperature;BME280_humidity;BME280_pressure;Samples;Min_cycle;Max_cycle;Signal;HPM_P1;HPM_P2
2022/04/23 00:02:12;;;;;;;17.25;13.25;;;;;;;15.14;47.77;100395.53;6337820;22;20042;-64
2022/04/23 00:04:39;;;;;;;14.40;12.50;;;;;;;15.13;48.05;100391.13;6338380;22;20014;-64
2022/04/23 00:07:05;;;;;;;16.45;13.70;;;;;;;15.11;48.15;100384.16;6310234;22;20101;-64
2022/04/23 00:09:33;;;;;;;14.95;13.15;;;;;;;15.09;48.11;100386.19;6338076;22;20389;-63
2022/04/23 00:12:03;;;;;;;17.52;13.68;;;;;;;15.08;48.32;100392.59;6337252;22;20453;-63
2022/04/23 00:14:29;;;;;;;17.20;13.77;;;;;;;15.05;48.57;100388.31;6337436;22;20015;-64
2022/04/23 00:16:57;;;;;;;18.30;13.90;;;;;;;15.03;48.35;100384.91;6337449;22;20019;-64
2022/04/23 00:19:24;;;;;;;15.68;13.55;;;;;;;15.01;48.70;100383.38;6337632;22;20064;-64
2022/04/23 00:21:55;;;;;;;15.90;13.75;;;;;;;14.98;48.52;100389.91;6310316;22;20010;-64
2022/04/23 00:24:21;;;;;;;16.50;14.13;;;;;;;14.98;48.78;100387.22;6337847;22;20015;-63
2022/04/23 00:26:48;;;;;;;17.35;14.27;;;;;;;14.97;48.80;100387.38;6337890;22;20018;-64
2022/04/23 00:29:14;;;;;;;18.00;14.77;;;;;;;14.97;49.03;100387.38;6336493;22;20015;-64
2022/04/23 00:31:43;;;;;;;17.25;14.75;;;;;;;14.98;48.81;100384.50;6309173;22;20046;-64
2022/04/23 00:34:10;;;;;;;17.48;14.45;;;;;;;14.98;48.87;100387.22;6337842;22;20014;-63
2022/04/23 00:36:37;;;;;;;18.38;14.50;;;;;;;14.99;48.82;100390.78;6311321;22;20015;-64
2022/04/23 00:39:05;;;;;;;16.35;14.60;;;;;;;15.00;49.05;100387.91;6338979;22;20019;-64
2022/04/23 00:41:46;;;;;;;16.48;14.20;;;;;;;15.00;48.99;100382.50;6339054;22;20014;-64
2022/04/23 00:44:16;;;;;;;18.55;15.40;;;;;;;15.01;49.04;100384.22;6339068;22;20018;-64
2022/04/23 00:46:43;;;;;;;18.15;15.55;;;;;;;15.02;49.03;100382.38;6339689;22;20019;-63
2022/04/23 00:49:10;;;;;;;18.60;15.50;;;;;;;14.99;49.17;100377.25;6338839;22;20384;-63
2022/04/23 00:51:41;;;;;;;19.35;15.98;;;;;;;14.97;49.12;100387.38;6339188;22;20011;-63
2022/04/23 00:54:09;;;;;;;23.25;17.20;;;;;;;14.94;49.17;100391.22;6338982;22;20011;-63
2022/04/23 00:56:36;;;;;;;19.23;16.38;;;;;;;14.91;49.32;100399.63;6338788;22;20375;-63
2022/04/23 00:59:08;;;;;;;20.08;15.90;;;;;;;14.89;49.48;100391.66;6311016;22;20345;-63
2022/04/23 01:01:40;;;;;;;22.90;16.23;;;;;;;14.87;49.40;100396.38;6338573;22;20015;-64
2022/04/23 01:04:08;;;;;;;21.55;16.88;;;;;;;14.86;49.66;100396.47;6338647;22;20034;-64
2022/04/23 01:06:35;;;;;;;21.23;16.15;;;;;;;14.84;49.60;100395.78;6338885;22;20019;-63
2022/04/23 01:09:04;;;;;;;20.73;16.60;;;;;;;14.82;49.65;100384.25;6338203;22;20034;-63
2022/04/23 01:11:36;;;;;;;17.65;15.77;;;;;;;14.81;49.80;100382.56;6338351;22;20017;-64
2022/04/23 01:14:03;;;;;;;20.60;17.42;;;;;;;14.80;49.77;100384.41;6338536;22;20021;-63
2022/04/23 01:16:30;;;;;;;19.05;17.02;;;;;;;14.78;49.88;100393.66;6338768;22;20015;-63
2022/04/23 01:18:57;;;;;;;21.65;17.65;;;;;;;14.77;49.78;100390.09;6310591;22;20045;-64
2022/04/23 01:21:28;;;;;;;21.17;16.60;;;;;;;14.76;49.99;100393.81;6338035;22;20010;-63
2022/04/23 01:23:57;;;;;;;19.45;16.98;;;;;;;14.75;49.90;100397.50;6338244;22;20014;-63
2022/04/23 01:26:31;;;;;;;19.55;17.45;;;;;;;14.74;49.80;100401.22;6338282;22;20014;-64
2022/04/23 01:28:59;;;;;;;20.75;18.17;;;;;;;14.73;50.01;100395.94;6337043;22;20038;-63
2022/04/23 01:31:30;;;;;;;22.27;17.67;;;;;;;14.71;50.16;100398.81;6338344;22;20018;-63
2022/04/23 01:33:57;;;;;;;21.67;18.45;;;;;;;14.71;50.09;100395.25;6337872;22;20349;-63
2022/04/23 01:36:23;;;;;;;19.23;17.13;;;;;;;14.70;50.24;100398.94;6311040;22;20011;-64
2022/04/23 01:38:50;;;;;;;23.15;19.20;;;;;;;14.69;50.17;100394.53;6337725;22;20019;-63
2022/04/23 01:41:20;;;;;;;21.73;18.15;;;;;;;14.67;50.45;100397.41;6337762;22;20072;-63
2022/04/23 01:43:47;;;;;;;21.73;18.08;;;;;;;14.66;50.56;100406.50;6338149;22;20041;-64
2022/04/23 01:46:13;;;;;;;23.10;19.17;;;;;;;14.65;50.24;100399.38;6310693;22;20038;-63
2022/04/23 01:48:40;;;;;;;21.52;17.77;;;;;;;14.63;50.55;100398.69;6337411;22;20025;-63
2022/04/23 01:51:11;;;;;;;23.02;18.85;;;;;;;14.61;50.59;100400.69;6338089;22;20007;-63
2022/04/23 01:53:38;;;;;;;25.73;20.20;;;;;;;14.59;50.54;100395.41;6337685;22;20440;-64
2022/04/23 01:56:04;;;;;;;24.00;20.80;;;;;;;14.58;50.57;100401.81;6337644;22;20067;-64
2022/04/23 01:58:31;;;;;;;27.42;20.23;;;;;;;14.57;50.79;100410.94;6337054;22;20015;-63
2022/04/23 02:01:02;;;;;;;21.92;18.83;;;;;;;14.56;50.95;100402.97;6337570;22;20021;-64
2022/04/23 02:03:31;;;;;;;23.70;19.02;;;;;;;14.54;50.81;100397.72;6338131;22;20011;-63
2022/04/23 02:05:58;;;;;;;24.77;20.52;;;;;;;14.53;50.83;100404.09;6337572;22;20014;-63
2022/04/23 02:08:24;;;;;;;23.83;20.40;;;;;;;14.50;50.84;100396.28;6337237;22;20018;-64
2022/04/23 02:10:55;;;;;;;24.23;20.58;;;;;;;14.50;50.98;100403.56;6337014;22;20010;-64
2022/04/23 02:13:22;;;;;;;23.30;20.35;;;;;;;14.47;50.94;100396.59;6337661;22;20021;-63
2022/04/23 02:15:49;;;;;;;26.20;21.85;;;;;;;14.45;51.21;100398.56;6337445;22;20069;-64
2022/04/23 02:18:16;;;;;;;28.00;20.70;;;;;;;14.43;51.29;100391.63;6336618;22;20059;-64
2022/04/23 02:20:44;;;;;;;23.70;19.70;;;;;;;14.42;51.26;100400.69;6336667;22;20049;-64
2022/04/23 02:23:11;;;;;;;25.98;21.20;;;;;;;14.40;51.28;100398.13;6338042;22;20022;-64
2022/04/23 02:25:37;;;;;;;25.20;20.35;;;;;;;14.39;51.37;100396.44;6338972;22;20011;-64
2022/04/23 02:28:04;;;;;;;26.15;21.25;;;;;;;14.39;51.37;100401.81;6338372;22;20018;-64
2022/04/23 02:30:35;;;;;;;24.58;20.88;;;;;;;14.36;51.38;100406.66;6310495;22;20010;-64
2022/04/23 02:33:02;;;;;;;27.15;21.50;;;;;;;14.35;51.64;100407.66;6337987;22;20015;-64
2022/04/23 02:35:29;;;;;;;27.58;21.17;;;;;;;14.33;51.57;100402.41;6338240;22;20392;-64
2022/04/23 02:37:56;;;;;;;30.75;22.42;;;;;;;14.31;51.66;100409.78;6337378;22;20022;-64
2022/04/23 02:40:28;;;;;;;27.98;22.17;;;;;;;14.27;51.75;100406.53;6337995;22;20011;-64
2022/04/23 02:42:56;;;;;;;25.30;21.90;;;;;;;14.27;51.91;100413.78;6337992;22;20017;-64
2022/04/23 02:45:23;;;;;;;25.63;21.75;;;;;;;14.27;51.72;100413.78;6338180;22;20015;-64
2022/04/23 02:47:54;;;;;;;29.25;22.30;;;;;;;14.26;51.66;100407.53;6337636;22;20037;-64
2022/04/23 02:50:37;;;;;;;25.70;21.55;;;;;;;14.25;51.72;100403.13;6337781;22;20011;-63
2022/04/23 02:53:07;;;;;;;27.52;22.40;;;;;;;14.26;51.86;100404.81;6337707;22;20089;-64
2022/04/23 02:55:36;;;;;;;27.15;22.38;;;;;;;14.26;52.05;100403.97;6337661;22;20038;-64
2022/04/23 02:58:07;;;;;;;26.92;23.60;;;;;;;14.26;52.17;100399.44;6337270;22;20018;-63
2022/04/23 03:00:35;;;;;;;28.17;22.65;;;;;;;14.26;52.13;100391.31;6337627;22;20014;-63
2022/04/23 03:03:02;;;;;;;26.92;22.05;;;;;;;14.27;52.24;100393.03;6337434;22;20022;-63
2022/04/23 03:05:30;;;;;;;28.55;23.15;;;;;;;14.29;52.20;100384.78;6337694;22;20089;-63
2022/04/23 03:07:59;;;;;;;28.55;22.63;;;;;;;14.30;52.38;100386.47;6337118;22;20018;-63
2022/04/23 03:10:30;;;;;;;29.75;23.23;;;;;;;14.30;52.27;100386.47;6337663;22;20014;-63
2022/04/23 03:12:57;;;;;;;28.08;23.10;;;;;;;14.29;51.92;100398.28;6337414;22;20026;-63
2022/04/23 03:15:28;;;;;;;30.00;23.35;;;;;;;14.27;52.42;100390.31;6337589;22;20015;-62
2022/04/23 03:18:08;;;;;;;27.25;22.60;;;;;;;14.25;52.64;100396.88;6336722;22;20015;-63
2022/04/23 03:20:40;;;;;;;28.75;23.10;;;;;;;14.24;52.52;100390.63;6311289;22;20044;-63
2022/04/23 03:23:07;;;;;;;29.85;23.35;;;;;;;14.22;52.33;100387.22;6338719;22;20019;-64
2022/04/23 03:25:34;;;;;;;28.73;23.73;;;;;;;14.21;52.49;100393.59;6338970;22;20467;-63
2022/04/23 03:28:01;;;;;;;29.65;23.77;;;;;;;14.18;52.64;100390.34;6338549;22;20333;-63
2022/04/23 03:30:30;;;;;;;29.75;23.50;;;;;;;14.16;52.67;100392.31;6338868;22;20014;-63
2022/04/23 03:32:58;;;;;;;30.50;23.88;;;;;;;14.13;52.84;100385.38;6338792;22;20018;-63
2022/04/23 03:35:26;;;;;;;29.80;23.80;;;;;;;14.11;52.79;100387.31;6339051;22;20006;-63
2022/04/23 03:37:55;;;;;;;29.25;23.52;;;;;;;14.12;52.67;100382.78;6311795;22;20045;-64
2022/04/23 03:40:26;;;;;;;32.42;25.23;;;;;;;14.10;52.80;100385.63;6338668;22;20021;-63
2022/04/23 03:42:52;;;;;;;29.92;23.50;;;;;;;14.10;53.03;100382.06;6339343;22;20014;-63
2022/04/23 03:45:19;;;;;;;29.02;23.17;;;;;;;14.09;52.85;100388.47;6338815;22;20460;-63
2022/04/23 03:47:47;;;;;;;29.38;23.33;;;;;;;14.08;53.03;100375.94;6338260;22;20314;-64
2022/04/23 03:50:18;;;;;;;31.00;24.48;;;;;;;14.06;53.16;100373.41;6339253;22;20042;-64
2022/04/23 03:52:46;;;;;;;31.50;23.70;;;;;;;14.06;53.28;100369.84;6338380;22;20065;-64
2022/04/23 03:55:13;;;;;;;31.63;24.75;;;;;;;14.05;53.33;100369.00;6311499;22;20463;-64
2022/04/23 03:57:47;;;;;;;31.73;24.48;;;;;;;14.04;53.28;100371.84;6338166;22;20103;-64
2022/04/23 04:00:22;;;;;;;29.52;24.02;;;;;;;14.04;53.19;100367.28;6338803;22;20038;-64
2022/04/23 04:02:50;;;;;;;29.65;23.25;;;;;;;14.05;53.33;100371.69;6338328;22;20019;-64
2022/04/23 04:05:17;;;;;;;27.70;23.20;;;;;;;14.03;53.24;100370.13;6338667;22;20388;-63
2022/04/23 04:07:46;;;;;;;30.70;23.52;;;;;;;14.03;53.17;100370.97;6338074;22;20026;-63
2022/04/23 04:10:18;;;;;;;30.77;24.92;;;;;;;14.01;53.39;100375.69;6338505;22;20468;-64
2022/04/23 04:12:45;;;;;;;27.70;23.77;;;;;;;14.01;53.55;100367.56;6338822;22;20019;-64
2022/04/23 04:15:16;;;;;;;31.27;23.95;;;;;;;14.00;53.52;100377.53;6338715;22;20011;-64
2022/04/23 04:17:45;;;;;;;31.58;24.17;;;;;;;14.00;53.42;100369.41;6338205;22;20014;-64
2022/04/23 04:20:14;;;;;;;28.52;23.73;;;;;;;14.00;53.53;100366.72;6311058;22;20030;-64
2022/04/23 04:22:41;;;;;;;29.80;23.65;;;;;;;14.02;53.58;100371.97;6310746;22;20022;-63
2022/04/23 04:25:09;;;;;;;27.92;23.27;;;;;;;14.04;53.63;100369.13;6338454;22;20015;-64
2022/04/23 04:27:38;;;;;;;30.33;24.67;;;;;;;14.05;53.40;100368.13;6338379;22;20053;-64
2022/04/23 04:32:35;;;;;;;30.10;23.10;;;;;;;14.07;53.46;100368.84;6337942;22;20014;-64
2022/04/23 04:35:02;;;;;;;27.20;21.70;;;;;;;14.06;53.32;100356.34;6310364;22;20025;-64
2022/04/23 04:37:30;;;;;;;28.27;23.50;;;;;;;14.06;53.24;100356.34;6337832;22;20011;-64
2022/04/23 04:39:56;;;;;;;30.73;23.30;;;;;;;14.03;53.50;100354.78;6338405;22;20013;-64
2022/04/23 04:42:27;;;;;;;29.23;22.80;;;;;;;14.00;53.66;100358.63;6337996;22;20379;-63
2022/04/23 04:44:59;;;;;;;28.42;23.98;;;;;;;13.98;53.46;100362.47;6337790;22;20015;-64
2022/04/23 04:47:25;;;;;;;28.75;22.98;;;;;;;13.96;53.54;100361.75;6337011;22;20022;-63
2022/04/23 04:49:52;;;;;;;27.50;22.92;;;;;;;13.94;53.62;100350.25;6337618;22;20337;-63
2022/04/23 04:52:20;;;;;;;30.55;23.95;;;;;;;13.94;53.76;100364.59;6338009;22;20019;-64
2022/04/23 04:54:52;;;;;;;26.45;22.30;;;;;;;13.95;53.70;100366.28;6337920;22;20015;-64
2022/04/23 04:57:18;;;;;;;28.30;23.50;;;;;;;13.96;53.76;100368.00;6337525;22;20021;-63
2022/04/23 04:59:45;;;;;;;28.33;23.20;;;;;;;13.98;53.74;100367.84;6337672;22;20017;-64
2022/04/23 05:02:15;;;;;;;29.30;24.00;;;;;;;14.00;53.94;100371.28;6338179;22;20015;-63
2022/04/23 05:04:42;;;;;;;28.45;23.50;;;;;;;14.01;53.83;100372.97;6338101;22;20015;-63
2022/04/23 05:07:08;;;;;;;30.02;24.20;;;;;;;14.03;53.92;100380.94;6337130;22;20015;-64
2022/04/23 05:09:35;;;;;;;30.75;24.33;;;;;;;14.03;53.84;100376.38;6337555;22;20098;-64
2022/04/23 05:12:03;;;;;;;31.15;24.88;;;;;;;14.05;54.19;100378.94;6310434;22;20037;-64
2022/04/23 05:14:30;;;;;;;28.42;23.80;;;;;;;14.06;53.99;100375.25;6337965;22;20022;-64
2022/04/23 05:16:56;;;;;;;29.42;23.48;;;;;;;14.07;54.23;100376.94;6336734;22;20481;-64
2022/04/23 05:19:23;;;;;;;31.90;24.48;;;;;;;14.09;54.00;100372.25;6337315;22;20018;-64
2022/04/23 05:21:54;;;;;;;27.63;24.50;;;;;;;14.10;54.29;100372.13;6337746;22;20018;-64
2022/04/23 05:24:20;;;;;;;28.75;23.70;;;;;;;14.13;54.08;100366.47;6337202;22;20391;-64
2022/04/23 05:26:52;;;;;;;26.38;22.15;;;;;;;14.14;54.21;100370.00;6336875;22;20060;-64
2022/04/23 05:29:18;;;;;;;27.13;23.50;;;;;;;14.15;54.27;100377.97;6337287;22;20035;-65
2022/04/23 05:31:49;;;;;;;28.33;24.00;;;;;;;14.19;54.28;100373.13;6337433;22;20015;-64
2022/04/23 05:34:15;;;;;;;31.30;23.38;;;;;;;14.22;54.27;100375.56;6337631;22;20034;-64
2022/04/23 05:36:42;;;;;;;29.73;24.80;;;;;;;14.24;54.25;100377.09;6337258;22;20010;-64
2022/04/23 05:39:08;;;;;;;29.92;23.67;;;;;;;14.27;54.29;100379.53;6337361;22;20077;-64
2022/04/23 05:41:42;;;;;;;27.33;23.90;;;;;;;14.30;54.47;100381.94;6309106;22;20411;-64
2022/04/23 05:44:09;;;;;;;33.10;24.40;;;;;;;14.34;54.33;100377.09;6336544;22;20014;-64
2022/04/23 05:46:35;;;;;;;29.10;24.38;;;;;;;14.38;54.23;100383.06;6336677;22;20409;-64
2022/04/23 05:49:03;;;;;;;28.88;24.73;;;;;;;14.41;54.33;100383.63;6336858;22;20025;-64
2022/04/23 05:51:34;;;;;;;28.73;24.35;;;;;;;14.43;54.25;100376.25;6336886;22;20341;-64
2022/04/23 05:54:01;;;;;;;27.67;23.60;;;;;;;14.46;54.44;100375.13;6336781;22;20014;-64
2022/04/23 05:56:30;;;;;;;28.15;23.42;;;;;;;14.51;54.44;100379.09;6336483;22;20337;-64
2022/04/23 05:58:56;;;;;;;30.58;24.48;;;;;;;14.51;54.26;100372.81;6336916;22;20019;-64
2022/04/23 06:01:27;;;;;;;30.55;24.25;;;;;;;14.55;54.26;100379.66;6309251;22;20041;-64
2022/04/23 06:03:54;;;;;;;30.20;24.08;;;;;;;14.60;54.59;100377.34;6337147;22;20086;-64
2022/04/23 06:06:22;;;;;;;28.45;23.60;;;;;;;14.65;54.22;100380.47;6336594;22;20105;-64
2022/04/23 06:08:49;;;;;;;25.38;22.33;;;;;;;14.70;54.52;100385.44;6337126;22;20344;-64
2022/04/23 06:11:20;;;;;;;28.17;23.25;;;;;;;14.76;54.06;100379.44;6309361;22;20018;-64
2022/04/23 06:13:46;;;;;;;27.42;22.73;;;;;;;14.81;54.50;100372.59;6336768;22;20441;-64
2022/04/23 06:16:13;;;;;;;26.83;22.58;;;;;;;14.87;54.35;100369.34;6309205;22;20084;-64
2022/04/23 06:18:40;;;;;;;27.45;22.95;;;;;;;14.95;54.34;100363.19;6336734;22;20029;-64
2022/04/23 06:21:10;;;;;;;26.67;23.13;;;;;;;15.03;54.34;100368.69;6336765;22;20022;-64
2022/04/23 06:23:37;;;;;;;28.58;23.40;;;;;;;15.10;54.17;100372.50;6336936;22;20011;-64
2022/04/23 06:26:03;;;;;;;26.50;22.58;;;;;;;15.17;53.95;100362.78;6336857;22;20015;-64
2022/04/23 06:28:30;;;;;;;27.35;23.42;;;;;;;15.24;53.98;100366.59;6336477;22;20503;-64
2022/04/23 06:31:01;;;;;;;28.83;24.33;;;;;;;15.35;54.07;100372.81;6336227;22;20018;-63
2022/04/23 06:33:31;;;;;;;27.73;22.65;;;;;;;15.44;53.77;100366.47;6336548;22;20510;-64
2022/04/23 06:35:58;;;;;;;26.67;23.17;;;;;;;15.53;53.74;100360.16;6337096;22;20094;-64
2022/04/23 06:38:25;;;;;;;28.20;23.13;;;;;;;15.63;53.98;100363.72;6337304;22;20022;-64
2022/04/23 06:40:56;;;;;;;27.30;23.25;;;;;;;15.73;53.72;100361.78;6336869;22;20076;-64
2022/04/23 06:43:22;;;;;;;26.75;22.42;;;;;;;15.83;53.39;100356.28;6336844;22;20033;-64
2022/04/23 06:45:49;;;;;;;27.92;21.60;;;;;;;15.90;53.34;100362.78;6308640;22;20015;-65
2022/04/23 06:48:16;;;;;;;27.10;23.83;;;;;;;15.99;53.29;100367.28;6336664;22;20015;-64
2022/04/23 06:50:51;;;;;;;27.23;22.95;;;;;;;16.11;52.92;100348.91;6337183;22;20048;-64
2022/04/23 06:53:18;;;;;;;25.63;22.25;;;;;;;16.19;53.03;100354.41;6336919;22;20015;-64
2022/04/23 06:55:44;;;;;;;27.33;22.00;;;;;;;16.27;52.78;100361.75;6337541;22;20484;-64
2022/04/23 06:58:12;;;;;;;24.25;21.65;;;;;;;16.34;52.52;100366.38;6309467;22;20038;-65
2022/04/23 07:00:43;;;;;;;26.15;22.88;;;;;;;16.45;52.40;100363.44;6285317;22;20015;-64
2022/04/23 07:03:10;;;;;;;25.45;22.77;;;;;;;16.59;52.62;100355.75;6338763;22;20345;-64
2022/04/23 07:05:36;;;;;;;25.95;21.75;;;;;;;16.72;52.33;100350.78;6310902;22;20011;-64
2022/04/23 07:08:03;;;;;;;23.55;20.92;;;;;;;16.82;52.20;100355.06;6338711;22;20047;-64
2022/04/23 07:10:34;;;;;;;26.77;21.98;;;;;;;16.93;51.73;100353.09;6338378;22;20460;-65
2022/04/23 07:13:01;;;;;;;23.20;20.02;;;;;;;17.04;51.89;100347.38;6338180;22;20015;-64
2022/04/23 07:15:28;;;;;;;24.13;21.42;;;;;;;17.16;51.79;100351.53;6338514;22;20018;-64
2022/04/23 07:17:55;;;;;;;24.05;21.15;;;;;;;17.27;51.59;100351.22;6338445;22;20006;-64
2022/04/23 07:20:46;;;;;;;26.80;21.08;;;;;;;17.44;51.46;100346.69;6338532;22;20350;-65
2022/04/23 07:25:58;;;;;;;24.25;21.27;;;;;;;17.73;50.60;100344.41;6338376;22;20015;-64
2022/04/23 07:28:25;;;;;;;25.85;21.15;;;;;;;17.84;50.60;100347.84;6337517;22;20428;-66
2022/04/23 07:30:54;;;;;;;27.23;21.35;;;;;;;17.93;50.08;100334.13;6310535;22;20014;-67
2022/04/23 07:38:52;;;;;;;25.08;21.33;;;;;;;18.21;49.46;100341.94;6337942;22;20093;-67
2022/04/23 07:41:20;;;;;;;23.20;20.55;;;;;;;18.30;49.17;100328.16;6311416;22;20021;-66
2022/04/23 07:43:48;;;;;;;24.10;21.30;;;;;;;18.39;49.15;100335.28;6338039;22;20101;-66
2022/04/23 07:46:14;;;;;;;24.70;21.45;;;;;;;18.47;48.76;100336.28;6338133;22;20015;-66
2022/04/23 07:48:42;;;;;;;25.27;21.52;;;;;;;18.55;48.70;100330.84;6310729;22;20072;-67
2022/04/23 07:51:11;;;;;;;23.65;21.15;;;;;;;18.65;48.36;100335.13;6311247;22;20014;-66
2022/04/23 07:53:38;;;;;;;23.65;21.13;;;;;;;18.78;48.58;100333.72;6338535;22;20018;-66
2022/04/23 07:56:05;;;;;;;25.17;21.20;;;;;;;18.92;48.33;100344.75;6338649;22;20038;-65
2022/04/23 07:58:32;;;;;;;22.98;20.48;;;;;;;19.03;47.91;100333.47;6338265;22;20350;-66
2022/04/23 08:01:24;;;;;;;25.77;21.88;;;;;;;19.18;47.60;100328.13;6338097;22;20097;-66
2022/04/23 08:03:51;;;;;;;22.25;19.85;;;;;;;19.28;47.37;100333.38;6338564;22;20014;-67
2022/04/23 08:06:18;;;;;;;23.02;20.63;;;;;;;19.35;46.97;100326.22;6338006;22;20073;-66
2022/04/23 08:08:44;;;;;;;23.58;21.02;;;;;;;19.39;46.83;100322.09;6337426;22;20019;-67
2022/04/23 08:11:15;;;;;;;22.92;20.45;;;;;;;19.46;46.62;100309.47;6338404;22;20011;-67
2022/04/23 08:13:41;;;;;;;22.98;20.33;;;;;;;19.58;46.40;100310.78;6337515;22;20026;-67
2022/04/23 08:16:08;;;;;;;22.75;20.35;;;;;;;19.67;46.11;100308.84;6310906;22;20026;-69
2022/04/23 08:18:35;;;;;;;22.05;19.67;;;;;;;19.73;46.01;100312.72;6337556;22;20015;-67
2022/04/23 08:21:05;;;;;;;28.70;20.95;;;;;;;19.79;46.28;100312.84;6338040;22;20020;-67
2022/04/23 08:23:33;;;;;;;21.33;19.13;;;;;;;19.83;45.75;100308.72;6337856;22;20015;-68
2022/04/23 08:26:05;;;;;;;22.90;19.48;;;;;;;19.87;45.60;100314.66;6284067;22;20106;-65
2022/04/23 08:31:23;;;;;;;22.17;19.88;;;;;;;20.01;45.58;100308.41;6337571;22;20021;-67
2022/04/23 08:33:59;;;;;;;23.92;20.33;;;;;;;20.08;45.70;100308.56;6337663;22;20015;-67
2022/04/23 08:36:31;;;;;;;22.83;19.00;;;;;;;20.15;45.70;100313.09;6337911;22;20011;-68
2022/04/23 08:38:59;;;;;;;22.50;20.15;;;;;;;20.24;45.45;100311.16;6310216;22;20015;-67
2022/04/23 08:41:31;;;;;;;21.20;18.90;;;;;;;20.27;45.10;100308.91;6310690;22;20429;-68
2022/04/23 08:44:07;;;;;;;22.00;19.20;;;;;;;20.36;44.72;100300.63;6312201;22;20021;-68
2022/04/23 08:46:37;;;;;;;22.10;19.80;;;;;;;20.49;45.11;100303.59;6337788;22;20021;-68
2022/04/23 08:49:08;;;;;;;22.83;20.20;;;;;;;20.63;44.95;100310.94;6337349;22;20050;-68
2022/04/23 08:51:41;;;;;;;22.38;19.55;;;;;;;20.72;44.45;100301.63;6337908;22;20341;-67
2022/04/23 08:54:12;;;;;;;22.52;20.13;;;;;;;20.76;43.97;100313.88;6337357;22;20015;-67
2022/04/23 08:56:41;;;;;;;24.02;19.58;;;;;;;20.78;43.78;100303.63;6338037;22;20031;-66
2022/04/23 08:59:10;;;;;;;21.60;19.30;;;;;;;20.86;43.91;100314.47;6337322;22;20023;-67
2022/04/23 09:01:47;;;;;;;21.30;19.13;;;;;;;21.03;43.67;100319.72;6335782;22;20019;-67
2022/04/23 09:04:13;;;;;;;21.55;19.23;;;;;;;21.19;43.62;100311.34;6337381;22;20044;-66
2022/04/23 09:06:42;;;;;;;22.48;18.70;;;;;;;21.36;43.59;100317.44;6337616;22;20021;-66
2022/04/23 09:09:13;;;;;;;21.10;18.92;;;;;;;21.54;43.46;100326.06;6337207;22;20022;-67
2022/04/23 09:11:48;;;;;;;21.60;19.27;;;;;;;21.62;42.92;100316.94;6337536;22;20333;-66
2022/04/23 09:14:25;;;;;;;20.75;18.23;;;;;;;21.67;42.55;100322.66;6337567;22;20037;-67
2022/04/23 09:25:31;;;;;;;24.10;18.60;;;;;;;21.84;41.91;100314.03;6310123;22;20099;-68
2022/04/23 09:28:20;;;;;;;21.30;19.05;;;;;;;22.00;41.80;100314.81;6337514;22;20137;-69
2022/04/23 09:30:59;;;;;;;23.48;19.58;;;;;;;22.13;41.41;100309.47;6337670;22;20015;-68
2022/04/23 09:33:54;;;;;;;20.92;18.50;;;;;;;22.24;40.97;100302.63;6310202;22;20452;-67
2022/04/23 09:36:21;;;;;;;21.25;19.02;;;;;;;22.34;41.28;100305.91;6337777;22;20425;-68
2022/04/23 09:39:14;;;;;;;22.67;20.02;;;;;;;22.47;40.74;100298.63;6337499;22;20007;-69
2022/04/23 09:41:44;;;;;;;21.75;19.05;;;;;;;22.59;40.73;100304.41;6330879;22;20018;-65
2022/04/23 09:44:12;;;;;;;21.80;19.23;;;;;;;22.62;40.10;100304.00;6337550;22;20064;-67
2022/04/23 09:46:46;;;;;;;23.35;20.25;;;;;;;22.59;40.04;100298.09;6337898;22;20019;-69
2022/04/23 09:49:30;;;;;;;23.80;19.77;;;;;;;22.53;39.69;100305.19;6337372;22;20098;-69
2022/04/23 09:52:11;;;;;;;22.73;19.33;;;;;;;22.48;39.93;100307.69;6337856;22;20014;-69
2022/04/23 09:54:38;;;;;;;21.85;19.55;;;;;;;22.49;39.69;100306.66;6337457;22;20011;-68
2022/04/23 09:57:05;;;;;;;21.90;19.60;;;;;;;22.52;39.56;100304.34;6337734;22;20060;-69
2022/04/23 09:59:32;;;;;;;21.95;19.52;;;;;;;22.67;39.61;100306.13;6309602;22;20015;-69
2022/04/23 10:02:05;;;;;;;20.67;18.42;;;;;;;22.81;39.50;100302.47;6337023;22;20023;-69
2022/04/23 10:04:33;;;;;;;21.30;19.00;;;;;;;22.92;39.29;100310.09;6336912;22;20444;-68
2022/04/23 10:07:01;;;;;;;21.58;19.08;;;;;;;23.03;39.03;100305.94;6337270;22;20345;-69
2022/04/23 10:09:36;;;;;;;23.10;20.63;;;;;;;23.14;39.02;100311.72;6337740;22;20015;-69
2022/04/23 10:12:07;;;;;;;23.55;20.65;;;;;;;23.27;39.22;100305.47;6337909;22;20064;-68
2022/04/23 10:14:41;;;;;;;21.77;19.20;;;;;;;23.39;38.47;100301.06;6338076;22;20013;-68
2022/04/23 10:17:10;;;;;;;22.53;20.07;;;;;;;23.52;38.27;100311.22;6338087;22;20015;-68
2022/04/23 10:19:39;;;;;;;22.00;19.70;;;;;;;23.58;38.17;100304.97;6338095;22;20022;-67
2022/04/23 10:22:31;;;;;;;22.13;19.77;;;;;;;23.66;37.93;100295.69;6310712;22;20064;-69
2022/04/23 10:25:17;;;;;;;21.70;19.40;;;;;;;23.69;37.42;100309.00;6310258;22;20015;-68
2022/04/23 10:27:44;;;;;;;;;;;;;;;23.65;37.42;100292.13;6313728;22;20434;-68
2022/04/23 10:30:14;;;;;;;23.58;19.40;;;;;;;23.59;37.11;100290.19;6336850;22;19914;-67
2022/04/23 10:32:41;;;;;;;22.08;19.77;;;;;;;23.54;37.07;100284.47;6310203;22;20023;-70
2022/04/23 10:35:17;;;;;;;23.15;20.65;;;;;;;23.46;36.96;100284.66;6338088;22;20018;-69
2022/04/23 10:37:45;;;;;;;23.38;19.90;;;;;;;23.39;37.16;100281.06;6338036;22;20015;-69
2022/04/23 10:40:18;;;;;;;23.27;20.77;;;;;;;23.39;37.15;100276.41;6337863;22;20404;-69
2022/04/23 10:43:07;;;;;;;23.48;21.08;;;;;;;23.37;37.00;100281.25;6337902;22;20433;-68
2022/04/23 10:45:35;;;;;;;23.20;19.98;;;;;;;23.35;36.90;100288.84;6338529;22;20093;-68
2022/04/23 10:48:23;;;;;;;22.13;19.85;;;;;;;23.33;37.04;100277.25;6310584;22;20086;-67
2022/04/23 10:51:16;;;;;;;23.23;20.08;;;;;;;23.38;36.93;100287.59;6337950;22;20033;-67
2022/04/23 10:53:42;;;;;;;21.45;19.23;;;;;;;23.42;36.94;100283.38;6337864;22;20412;-68
2022/04/23 10:56:10;;;;;;;23.25;20.85;;;;;;;23.52;36.38;100277.50;6308946;22;20102;-68
2022/04/23 10:58:43;;;;;;;24.38;21.08;;;;;;;23.57;36.69;100286.81;6336944;22;20011;-68
2022/04/23 11:01:28;;;;;;;23.83;19.40;;;;;;;23.67;36.72;100295.50;6338017;22;20030;-68
2022/04/23 11:03:57;;;;;;;23.38;20.48;;;;;;;23.79;36.58;100279.31;6338455;22;20090;-68
2022/04/23 11:12:54;;;;;;;23.15;20.05;;;;;;;23.82;35.82;100280.78;6337107;22;20010;-68
2022/04/23 11:15:21;;;;;;;24.00;20.73;;;;;;;23.94;35.95;100277.22;6337431;22;20007;-68
2022/04/23 11:17:56;;;;;;;23.48;20.85;;;;;;;24.07;35.94;100282.69;6337539;22;20038;-67
2022/04/23 11:20:28;;;;;;;24.55;20.73;;;;;;;24.19;35.51;100273.84;6337506;22;20011;-68
2022/04/23 11:22:57;;;;;;;23.95;20.20;;;;;;;24.28;35.69;100270.69;6336807;22;20017;-68
2022/04/23 11:25:24;;;;;;;22.17;19.77;;;;;;;24.33;35.02;100261.81;6337441;22;20011;-67
2022/04/23 11:27:50;;;;;;;23.88;20.98;;;;;;;24.37;35.33;100263.09;6337131;22;20015;-66
2022/04/23 11:30:29;;;;;;;24.17;20.50;;;;;;;24.48;35.10;100262.44;6337239;22;20026;-67
2022/04/23 11:33:08;;;;;;;24.42;21.02;;;;;;;24.57;34.86;100250.22;6336672;22;20011;-68
2022/04/23 11:35:36;;;;;;;23.35;20.95;;;;;;;24.61;34.89;100258.84;6337587;22;20017;-67
2022/04/23 11:38:02;;;;;;;23.98;20.17;;;;;;;24.63;34.78;100249.34;6337523;22;20018;-68
2022/04/23 11:40:34;;;;;;;23.92;20.98;;;;;;;24.67;34.66;100256.09;6337195;22;20325;-69
2022/04/23 11:43:00;;;;;;;24.65;21.13;;;;;;;24.68;34.64;100238.56;6338250;22;20353;-68
2022/04/23 11:45:27;;;;;;;27.17;22.63;;;;;;;24.73;34.49;100243.41;6338650;22;20326;-68
2022/04/23 11:47:53;;;;;;;23.30;19.85;;;;;;;24.79;34.47;100256.28;6338713;22;20025;-67
2022/04/23 11:50:22;;;;;;;22.40;19.92;;;;;;;24.83;34.53;100249.28;6311516;22;20452;-68